Time;durP1;ratioP1;P1;durP2;ratioP2;P2;SDS_P1;SDS_P2;PMS_P1;PMS_P2;Temp;Humidity;BMP_temperature;BMP_pressure;BME280_temperature;BME280_humidity;BME280_pressure;Samples;Min_cycle;Max_cycle;Signal;HPM_P1;HPM_P2
2022/10/04 00:01:09;;;;;;;9.13;3.90;;;;;;;6.51;92.48;97031.25;4971582;29;20074;-84
2022/10/04 00:03:43;;;;;;;8.32;3.70;;;;;;;6.54;91.59;97035.31;4971806;29;20043;-83
2022/10/04 00:06:19;;;;;;;52.03;6.60;;;;;;;6.57;90.75;97044.78;4971582;29;20055;-84
2022/10/04 00:08:50;;;;;;;10.77;3.50;;;;;;;6.56;90.32;97035.03;4959119;29;20036;-85
2022/10/04 00:11:23;;;;;;;88.07;7.85;;;;;;;6.54;90.79;97036.13;4958835;28;20079;-85
2022/10/04 00:13:56;;;;;;;12.98;3.33;;;;;;;6.54;90.90;97030.72;4956716;29;20050;-85
2022/10/04 00:16:29;;;;;;;17.10;3.63;;;;;;;6.55;90.63;97028.81;4972381;28;20070;-83
2022/10/04 00:19:21;;;;;;;;;;;;;;;6.52;90.76;97032.91;4954511;29;20055;-85
2022/10/04 00:22:11;;;;;;;187.90;52.28;;;;;;;6.44;90.39;97025.34;4940932;29;19922;-85
2022/10/04 00:25:20;;;;;;;335.15;86.40;;;;;;;6.43;90.51;97023.72;4971695;28;20047;-84
2022/10/04 00:28:28;;;;;;;236.98;75.22;;;;;;;6.45;90.89;97024.25;4977095;29;20074;-83
2022/10/04 00:31:25;;;;;;;332.20;85.60;;;;;;;6.42;91.07;97024.81;4978754;29;20047;-83
2022/10/04 00:33:54;;;;;;;238.02;72.57;;;;;;;6.38;91.23;97012.91;4978568;29;20142;-84
2022/10/04 00:36:51;;;;;;;366.10;87.57;;;;;;;6.38;90.95;97026.44;4977648;29;20069;-83
2022/10/04 00:39:41;;;;;;;375.80;89.95;;;;;;;6.40;90.78;97021.56;4957718;29;20058;-84
2022/10/04 00:42:46;;;;;;;370.77;90.30;;;;;;;6.37;91.06;97016.72;4960177;28;20060;-83
2022/10/04 00:45:20;;;;;;;289.35;75.55;;;;;;;6.41;91.11;97015.06;4900826;29;20053;-81
2022/10/04 00:48:29;;;;;;;282.90;81.15;;;;;;;6.39;91.33;97022.66;4969050;28;20035;-84
2022/10/04 00:51:01;;;;;;;333.85;85.75;;;;;;;6.32;91.34;97016.72;4979020;28;20043;-83
2022/10/04 00:53:42;;;;;;;298.33;85.15;;;;;;;6.29;91.39;97009.16;4978541;28;20039;-84
2022/10/04 00:56:14;;;;;;;166.30;53.75;;;;;;;6.30;91.19;97008.06;4977460;28;20077;-83
2022/10/04 00:59:11;;;;;;;221.43;60.03;;;;;;;6.29;90.75;97006.44;4976754;28;20069;-84
2022/10/04 01:01:38;;;;;;;209.40;55.53;;;;;;;6.32;90.94;97011.31;4977399;28;20047;-85
2022/10/04 01:04:16;;;;;;;16.48;6.00;;;;;;;6.33;90.92;97007.53;4977565;28;20123;-82
2022/10/04 01:06:44;;;;;;;7.35;3.92;;;;;;;6.36;90.72;97011.56;4977382;28;20075;-83
2022/10/04 01:09:12;;;;;;;40.22;14.98;;;;;;;6.35;90.71;97005.34;4977507;28;20055;-84
2022/10/04 01:11:44;;;;;;;6.95;3.67;;;;;;;6.30;90.45;97002.66;4977558;28;20051;-84
2022/10/04 01:14:20;;;;;;;9.50;3.90;;;;;;;6.22;90.08;97000.53;4977366;28;20083;-83
2022/10/04 01:16:47;;;;;;;17.88;3.90;;;;;;;6.01;90.21;96997.84;4942893;29;20043;-83
2022/10/04 01:19:30;;;;;;;14.20;4.47;;;;;;;5.85;90.00;96987.31;4958445;28;20040;-84
2022/10/04 01:22:03;;;;;;;16.02;4.60;;;;;;;5.67;90.88;96983.25;4975923;28;20051;-84
2022/10/04 01:24:36;;;;;;;16.08;6.82;;;;;;;5.71;91.16;96987.84;4976271;28;20047;-83
2022/10/04 01:27:36;;;;;;;24.73;6.75;;;;;;;5.86;90.97;96987.03;4965794;28;20047;-84
2022/10/04 01:30:08;;;;;;;35.00;10.38;;;;;;;5.90;91.07;96987.28;4976562;28;20047;-82
2022/10/04 01:32:35;;;;;;;67.25;20.15;;;;;;;5.96;91.09;96981.63;4962246;29;20058;-85
2022/10/04 01:35:02;;;;;;;12.60;4.38;;;;;;;6.02;90.83;96985.13;4961146;28;20083;-77
2022/10/04 01:37:29;;;;;;;13.73;3.85;;;;;;;6.07;90.80;96978.91;4960695;29;20043;-86
2022/10/04 01:40:15;;;;;;;7.28;3.08;;;;;;;6.09;90.64;96987.56;4962141;29;20099;-85
2022/10/04 01:42:48;;;;;;;8.93;3.67;;;;;;;6.08;89.63;96994.06;4978817;29;20071;-84
2022/10/04 01:45:24;;;;;;;15.00;3.88;;;;;;;6.00;89.58;96981.88;4978516;28;20047;-84
2022/10/04 01:47:56;;;;;;;8.10;3.83;;;;;;;5.98;89.77;96976.75;4947782;29;20091;-84
2022/10/04 01:50:30;;;;;;;7.20;2.90;;;;;;;6.00;90.15;96974.59;4961838;29;20047;-85
2022/10/04 01:53:00;;;;;;;7.88;3.35;;;;;;;6.00;90.50;96971.91;4961345;29;20042;-84
2022/10/04 01:55:34;;;;;;;10.07;3.30;;;;;;;5.96;90.33;96976.22;4976743;29;20031;-84
2022/10/04 01:58:03;;;;;;;;;;;;;;;5.91;90.11;96968.13;4978327;29;20051;-83
2022/10/04 02:00:31;;;;;;;11.55;3.97;;;;;;;5.73;89.93;96957.84;4974313;29;19929;-82
2022/10/04 02:03:00;;;;;;;6.18;3.47;;;;;;;5.65;90.14;96953.00;4975410;29;20035;-84
2022/10/04 02:05:30;;;;;;;17.65;4.28;;;;;;;5.52;90.63;96957.03;4962439;29;20047;-84
2022/10/04 02:08:04;;;;;;;10.27;4.15;;;;;;;5.65;90.45;96953.00;4961654;29;20110;-83
2022/10/04 02:10:35;;;;;;;;;;;;;;;5.62;90.41;96953.53;4959818;29;20054;-86
2022/10/04 02:13:08;;;;;;;14.82;3.78;;;;;;;5.67;90.14;96958.94;4948151;29;19922;-84
2022/10/04 02:15:38;;;;;;;14.32;3.55;;;;;;;5.73;90.47;96957.84;4940619;29;20050;-85
2022/10/04 02:18:11;;;;;;;6.40;3.58;;;;;;;5.73;90.50;96955.94;4945069;29;20042;-79
2022/10/04 02:20:40;;;;;;;8.65;3.55;;;;;;;5.75;90.48;96958.41;4945476;29;20091;-85
2022/10/04 02:23:08;;;;;;;9.35;3.92;;;;;;;5.83;90.19;96960.53;4942726;29;20050;-83
2022/10/04 02:25:38;;;;;;;11.02;4.38;;;;;;;5.82;89.39;96952.69;4971851;29;20053;-85
2022/10/04 02:28:05;;;;;;;6.28;3.28;;;;;;;5.82;89.67;96964.31;4977523;28;20023;-83
2022/10/04 02:30:36;;;;;;;14.73;3.33;;;;;;;5.76;88.48;96958.13;4978680;28;20127;-86
2022/10/04 02:33:02;;;;;;;11.90;4.68;;;;;;;5.73;88.59;96955.13;4978233;28;20061;-80
2022/10/04 02:35:34;;;;;;;43.10;16.15;;;;;;;5.73;88.67;96955.13;4977845;28;20035;-85
2022/10/04 02:38:07;;;;;;;18.40;6.68;;;;;;;5.73;88.41;96955.94;4961851;29;20055;-84
2022/10/04 02:40:42;;;;;;;9.07;3.30;;;;;;;5.70;88.48;96950.28;4978368;28;20043;-86
2022/10/04 02:43:15;;;;;;;7.55;3.92;;;;;;;5.68;88.38;96952.44;4977809;28;20036;-84
2022/10/04 02:45:48;;;;;;;6.13;3.40;;;;;;;5.69;88.90;96956.75;4977777;28;20039;-86
2022/10/04 02:48:30;;;;;;;;;;;;;;;5.71;89.27;96954.59;4960881;28;20144;-86
2022/10/04 02:51:02;;;;;;;6.35;3.05;;;;;;;5.65;88.52;96948.41;4978317;28;19913;-85
2022/10/04 02:53:39;;;;;;;12.77;3.60;;;;;;;5.55;88.72;96948.41;4977999;29;20059;-83
2022/10/04 02:56:10;;;;;;;28.85;8.00;;;;;;;5.27;88.48;96941.63;4961469;29;20043;-80
2022/10/04 02:58:40;;;;;;;85.50;21.73;;;;;;;5.21;89.50;96938.13;4978410;29;20039;-85
2022/10/04 03:01:07;;;;;;;9.25;4.55;;;;;;;5.14;90.44;96940.28;4977359;29;20172;-83
2022/10/04 03:03:37;;;;;;;132.75;34.63;;;;;;;5.10;91.02;96946.50;4976818;29;20098;-82
2022/10/04 03:06:06;;;;;;;80.55;27.45;;;;;;;5.23;91.26;96951.38;4976923;29;20039;-79
2022/10/04 03:08:36;;;;;;;88.65;42.05;;;;;;;5.35;91.66;96954.63;4977594;29;20066;-83
2022/10/04 03:11:05;;;;;;;12.10;3.70;;;;;;;5.38;90.68;96959.50;4975500;29;20111;-79
2022/10/04 03:13:33;;;;;;;17.35;4.70;;;;;;;5.32;90.37;96974.03;4976183;29;20126;-84
2022/10/04 03:16:01;;;;;;;12.82;5.43;;;;;;;5.29;90.46;96958.41;4959427;29;20051;-84
2022/10/04 03:18:29;;;;;;;11.65;3.22;;;;;;;5.27;90.65;96960.53;4974803;29;20090;-84
2022/10/04 03:20:56;;;;;;;6.28;3.60;;;;;;;5.33;90.77;96958.69;4975943;28;20035;-84
2022/10/04 03:23:23;;;;;;;10.07;3.97;;;;;;;5.30;90.53;96946.50;4958179;28;20063;-86
2022/10/04 03:25:55;;;;;;;6.15;3.40;;;;;;;5.33;90.63;96948.69;4974935;28;20106;-83
2022/10/04 03:28:22;;;;;;;7.40;3.50;;;;;;;5.23;90.41;96937.88;4976152;28;20102;-84
2022/10/04 03:30:51;;;;;;;8.98;3.85;;;;;;;5.06;90.41;96940.00;4977549;29;20047;-85
2022/10/04 03:33:21;;;;;;;8.52;4.05;;;;;;;4.98;91.18;96939.47;4977405;29;20058;-85
2022/10/04 03:35:52;;;;;;;5.40;3.40;;;;;;;5.06;91.28;96940.00;4961179;29;20039;-84
2022/10/04 03:38:19;;;;;;;9.02;3.80;;;;;;;5.15;90.95;96944.59;4959406;29;20058;-82
2022/10/04 03:40:52;;;;;;;6.03;3.03;;;;;;;5.23;90.77;96945.97;4976116;29;20099;-83
2022/10/04 03:43:23;;;;;;;8.88;4.88;;;;;;;5.34;91.08;96947.59;4975025;28;20058;-84
2022/10/04 03:45:52;;;;;;;9.52;4.03;;;;;;;5.44;90.93;96947.59;4974969;28;20037;-83
2022/10/04 03:48:31;;;;;;;10.23;4.40;;;;;;;5.42;91.33;96938.94;4973471;28;20061;-83
2022/10/04 03:50:58;;;;;;;9.40;3.80;;;;;;;5.39;90.94;96939.50;4956781;29;20474;-84
2022/10/04 03:53:31;;;;;;;11.68;4.03;;;;;;;5.14;90.62;96943.00;4956274;29;20043;-82
2022/10/04 03:55:59;;;;;;;8.30;4.10;;;;;;;5.07;90.51;96937.06;4969384;29;20115;-83
2022/10/04 03:58:28;;;;;;;7.95;3.95;;;;;;;5.07;90.80;96947.03;4971802;29;20051;-82
2022/10/04 04:01:17;;;;;;;12.38;4.20;;;;;;;5.02;91.08;96939.75;4961486;29;20039;-82
2022/10/04 04:04:02;;;;;;;7.35;3.60;;;;;;;4.93;91.36;96925.97;4972150;29;20047;-83
2022/10/04 04:06:37;;;;;;;11.25;3.95;;;;;;;4.86;92.40;96930.00;4971646;29;20066;-82
2022/10/04 04:09:06;;;;;;;8.23;3.92;;;;;;;4.87;92.60;96937.81;4954406;29;20047;-81
2022/10/04 04:14:23;;;;;;;10.32;4.00;;;;;;;5.14;92.02;96939.47;4966372;29;20051;-84
2022/10/04 04:16:52;;;;;;;11.30;3.60;;;;;;;5.17;91.20;96947.06;4971929;29;20067;-82
2022/10/04 04:19:23;;;;;;;9.15;3.58;;;;;;;5.20;90.97;96946.50;4961267;29;20602;-83
2022/10/04 04:21:51;;;;;;;12.50;4.18;;;;;;;5.23;90.50;96948.69;4971678;29;20050;-83
2022/10/04 04:24:26;;;;;;;11.27;3.47;;;;;;;5.27;91.04;96938.94;4954504;29;20051;-84
2022/10/04 04:26:58;;;;;;;5.47;3.03;;;;;;;5.25;91.21;96943.81;4971030;28;20043;-82
2022/10/04 04:29:30;;;;;;;8.85;3.30;;;;;;;5.23;91.23;96935.97;4970491;28;20047;-83
2022/10/04 04:32:02;;;;;;;8.90;3.28;;;;;;;5.24;91.33;96936.78;4972444;28;20049;-83
2022/10/04 04:34:31;;;;;;;9.85;3.72;;;;;;;5.30;91.39;96946.50;4973039;28;20062;-83
2022/10/04 04:37:00;;;;;;;10.48;3.22;;;;;;;5.36;91.45;96950.84;4973236;28;20057;-84
2022/10/04 04:39:38;;;;;;;5.97;3.28;;;;;;;5.37;91.19;96952.44;4973616;28;20035;-83
2022/10/04 04:42:13;;;;;;;11.25;3.58;;;;;;;5.32;91.41;96943.53;4973662;28;20056;-80
2022/10/04 04:44:47;;;;;;;6.38;3.40;;;;;;;5.22;91.20;96939.78;4971764;28;20053;-83
2022/10/04 04:47:27;;;;;;;6.68;3.60;;;;;;;5.25;90.79;96943.81;4971915;28;20049;-84
2022/10/04 04:49:56;;;;;;;7.88;3.85;;;;;;;5.35;91.07;96949.22;4974908;28;20053;-87
2022/10/04 04:52:27;;;;;;;14.93;4.22;;;;;;;5.41;91.23;96937.31;4957905;28;20043;-83
2022/10/04 04:54:55;;;;;;;11.27;3.85;;;;;;;5.42;91.21;96938.13;4972239;28;20043;-83
2022/10/04 04:57:22;;;;;;;8.77;3.45;;;;;;;5.45;90.91;96937.59;4972700;28;20059;-83
2022/10/04 04:59:53;;;;;;;9.38;3.70;;;;;;;5.43;90.14;96940.59;4941117;29;20050;-83
2022/10/04 05:02:33;;;;;;;12.63;3.95;;;;;;;5.40;89.67;96935.72;4963847;28;20099;-83
2022/10/04 05:05:22;;;;;;;12.70;3.50;;;;;;;5.22;89.64;96938.97;4972190;28;20110;-84
2022/10/04 05:07:50;;;;;;;5.03;3.15;;;;;;;5.23;90.10;96946.78;4974992;28;20482;-82
2022/10/04 05:10:30;;;;;;;6.85;3.30;;;;;;;5.31;90.56;96942.72;4974259;28;20111;-82
2022/10/04 05:12:59;;;;;;;5.30;3.22;;;;;;;5.37;90.63;96952.44;4975469;28;20550;-83
2022/10/04 05:15:27;;;;;;;8.00;3.55;;;;;;;5.41;90.87;96955.44;4976861;28;20043;-85
2022/10/04 05:17:55;;;;;;;10.43;4.00;;;;;;;5.32;90.90;96949.75;4959891;29;20093;-83
2022/10/04 05:20:22;;;;;;;7.50;3.50;;;;;;;5.18;90.55;96944.09;4976772;28;20134;-84
2022/10/04 05:22:50;;;;;;;6.40;3.30;;;;;;;5.26;90.89;96950.81;4977253;28;20115;-84
2022/10/04 05:25:26;;;;;;;8.65;3.80;;;;;;;5.25;90.89;96951.91;4958978;29;20070;-83
2022/10/04 05:27:55;;;;;;;9.02;3.72;;;;;;;5.16;91.36;96946.22;4976893;29;20047;-82
2022/10/04 05:30:32;;;;;;;7.45;3.15;;;;;;;5.07;91.96;96931.66;4960437;29;21630;-82
2022/10/04 05:33:05;;;;;;;7.63;3.65;;;;;;;4.95;92.99;96929.19;4975707;29;20073;-83
2022/10/04 05:35:43;;;;;;;6.90;3.97;;;;;;;5.10;93.17;96935.69;4976048;28;20059;-83
2022/10/04 05:38:19;;;;;;;6.13;3.80;;;;;;;5.11;93.55;96931.91;4974536;28;20350;-81
2022/10/04 05:40:50;;;;;;;7.05;3.50;;;;;;;5.19;93.50;96934.09;4976251;28;20054;-84
2022/10/04 05:43:30;;;;;;;9.07;3.70;;;;;;;5.39;93.18;96942.19;4975407;28;20103;-84
2022/10/04 05:46:17;;;;;;;8.35;3.38;;;;;;;5.48;92.68;96959.50;4977004;28;20055;-84
2022/10/04 05:48:49;;;;;;;6.65;3.55;;;;;;;5.41;93.08;96953.53;4944884;29;20035;-84
2022/10/04 05:51:19;;;;;;;6.85;3.65;;;;;;;5.54;93.05;96945.97;4961430;28;20047;-83
2022/10/04 05:53:48;;;;;;;8.60;3.72;;;;;;;5.62;92.44;96964.34;4979130;28;20134;-84
2022/10/04 05:56:31;;;;;;;6.70;3.40;;;;;;;5.68;92.31;96966.75;4978224;28;20067;-84
2022/10/04 05:59:10;;;;;;;6.32;3.03;;;;;;;5.75;92.35;96972.72;4964216;29;20047;-85
2022/10/04 06:01:47;;;;;;;8.48;3.58;;;;;;;5.84;93.19;96975.66;4977596;28;20091;-84
2022/10/04 06:04:32;;;;;;;8.07;4.10;;;;;;;5.94;93.62;96964.88;4977614;28;20406;-83
2022/10/04 06:07:01;;;;;;;8.98;4.45;;;;;;;5.91;93.69;96948.38;4975744;28;20053;-84
2022/10/04 06:09:51;;;;;;;14.20;4.43;;;;;;;5.84;94.17;96951.34;4958622;29;20130;-82
2022/10/04 06:12:32;;;;;;;15.30;5.00;;;;;;;6.05;93.95;96956.72;4974424;29;20185;-85
2022/10/04 06:15:28;;;;;;;7.03;4.10;;;;;;;6.09;93.36;96947.00;4928425;29;20061;-84
2022/10/04 06:18:20;;;;;;;8.98;4.13;;;;;;;6.21;93.66;96928.56;4967499;28;20126;-81
2022/10/04 06:21:16;;;;;;;13.85;4.95;;;;;;;6.33;93.23;96937.19;4908371;28;20044;-80
2022/10/04 06:23:51;;;;;;;9.07;4.38;;;;;;;6.43;93.21;96936.34;4945084;29;20039;-80
2022/10/04 06:26:23;;;;;;;6.78;3.80;;;;;;;6.54;93.18;96933.31;4955429;28;20127;-79
2022/10/04 06:28:54;;;;;;;7.82;5.00;;;;;;;6.63;93.28;96938.13;4939823;29;20050;-78
2022/10/04 06:32:07;;;;;;;11.13;6.00;;;;;;;6.87;94.00;96939.09;4945391;29;20498;-77
2022/10/04 06:34:57;;;;;;;16.27;5.40;;;;;;;6.99;93.32;96952.28;4942722;29;20051;-79
2022/10/04 06:37:39;;;;;;;15.00;5.57;;;;;;;7.15;93.19;96969.25;4950141;29;20062;-80
2022/10/04 06:40:31;;;;;;;13.77;5.80;;;;;;;7.22;93.74;96953.50;4954917;29;20055;-80
2022/10/04 06:43:14;;;;;;;13.15;5.55;;;;;;;7.29;94.50;96967.53;4963175;29;20046;-80
2022/10/04 06:45:54;;;;;;;9.18;5.03;;;;;;;7.43;93.64;96960.38;4967885;29;20135;-80
2022/10/04 06:48:55;;;;;;;9.40;5.38;;;;;;;7.51;93.65;96951.63;4956524;29;20047;-79
2022/10/04 06:51:42;;;;;;;32.58;13.02;;;;;;;7.66;93.76;96941.75;4904305;29;20056;-79
2022/10/04 06:54:31;;;;;;;26.38;8.68;;;;;;;7.81;93.37;96952.47;4943215;28;20511;-81
2022/10/04 06:57:25;;;;;;;16.40;6.25;;;;;;;7.82;93.16;96957.59;4940130;29;20052;-79
2022/10/04 07:00:14;;;;;;;23.15;8.23;;;;;;;7.96;93.10;96962.38;4936697;29;20049;-80
2022/10/04 07:02:46;;;;;;;43.30;18.13;;;;;;;8.14;93.50;96963.53;4960285;28;20511;-80
2022/10/04 07:05:21;;;;;;;53.13;22.70;;;;;;;8.41;93.38;96966.56;4959941;29;20069;-78
2022/10/04 07:08:05;;;;;;;16.83;5.93;;;;;;;8.48;92.08;96961.56;4937774;29;20040;-86
2022/10/04 07:10:39;;;;;;;8.27;5.18;;;;;;;8.50;91.70;96951.22;4947835;29;20057;-86
2022/10/04 07:13:16;;;;;;;18.85;10.05;;;;;;;8.62;90.97;96948.13;4972941;29;20104;-85
2022/10/04 07:15:48;;;;;;;21.77;9.27;;;;;;;8.62;91.08;96940.78;4970150;29;20043;-86
2022/10/04 07:18:21;;;;;;;19.58;8.48;;;;;;;8.71;91.46;96942.81;4969375;29;20107;-85
2022/10/04 07:20:52;;;;;;;11.50;5.22;;;;;;;8.85;90.73;96943.72;4971743;29;20537;-86
2022/10/04 07:23:27;;;;;;;13.55;5.55;;;;;;;9.07;90.61;96952.09;4971394;29;20122;-86
2022/10/04 07:26:00;;;;;;;11.88;5.82;;;;;;;9.17;89.79;96944.91;4972347;29;20078;-87
2022/10/04 07:31:24;;;;;;;14.82;5.68;;;;;;;10.12;86.92;96952.56;4970031;29;19953;-87
2022/10/04 07:33:55;;;;;;;11.55;5.40;;;;;;;9.77;85.13;96961.38;4940234;29;20051;-87
2022/10/04 07:36:25;;;;;;;11.65;6.13;;;;;;;9.56;86.41;96964.44;4951450;29;20058;-87
2022/10/04 07:38:59;;;;;;;9.45;5.07;;;;;;;9.56;87.16;96972.59;4951454;29;20090;-86
2022/10/04 07:41:31;;;;;;;8.05;5.32;;;;;;;9.59;87.66;96977.41;4944150;29;20067;-84
2022/10/04 07:44:01;;;;;;;23.07;6.90;;;;;;;9.64;87.84;96990.94;4960301;29;20067;-82
2022/10/04 07:46:44;;;;;;;18.05;5.63;;;;;;;9.72;88.65;96991.38;4959727;29;20023;-82
2022/10/04 07:49:15;;;;;;;17.37;7.43;;;;;;;9.75;89.12;96986.13;4916355;29;20041;-80
2022/10/04 07:52:02;;;;;;;15.23;6.25;;;;;;;9.85;89.65;96996.06;4954741;28;20165;-79
2022/10/04 07:54:38;;;;;;;14.15;6.65;;;;;;;9.96;89.99;97002.13;4971473;29;20043;-87
2022/10/04 07:57:13;;;;;;;10.65;5.80;;;;;;;9.98;89.67;96992.56;4972775;28;20051;-86
2022/10/04 07:59:48;;;;;;;16.23;6.20;;;;;;;10.04;89.41;96990.56;4971033;28;20043;-86
2022/10/04 08:02:25;;;;;;;10.15;6.10;;;;;;;10.10;88.86;96987.47;4970197;28;20518;-86
2022/10/04 08:05:03;;;;;;;7.68;4.70;;;;;;;10.18;88.16;96989.50;4970892;28;20074;-87
2022/10/04 08:07:45;;;;;;;9.63;5.38;;;;;;;10.20;87.63;96994.63;4970313;28;20047;-86
2022/10/04 08:10:22;;;;;;;10.13;5.80;;;;;;;10.25;87.58;96994.56;4966905;28;20050;-87
2022/10/04 08:12:57;;;;;;;13.70;5.68;;;;;;;10.33;87.81;96995.78;4968398;28;20047;-87
2022/10/04 08:15:34;;;;;;;8.98;5.07;;;;;;;10.24;85.40;96992.16;4968469;28;20074;-87
2022/10/04 08:18:11;;;;;;;11.10;5.70;;;;;;;10.05;84.15;96984.81;4977694;28;20058;-78
2022/10/04 08:20:48;;;;;;;8.35;4.90;;;;;;;10.20;84.17;96995.44;4973502;28;20774;-78
2022/10/04 08:23:30;;;;;;;10.88;4.75;;;;;;;10.30;84.81;96996.41;4940014;28;20391;-79
2022/10/04 08:26:07;;;;;;;10.90;5.05;;;;;;;10.36;84.66;96995.19;4956544;28;20047;-78
2022/10/04 08:31:40;;;;;;;10.45;5.32;;;;;;;10.53;84.79;96979.06;4964569;29;20131;-78
2022/10/04 08:34:27;;;;;;;9.27;4.57;;;;;;;10.58;83.18;96970.78;4940776;29;20062;-79
2022/10/04 08:37:09;;;;;;;7.05;4.60;;;;;;;10.85;83.82;96969.16;4958862;29;20047;-86
2022/10/04 08:39:57;;;;;;;11.85;5.03;;;;;;;10.91;83.73;96985.13;4922724;29;20054;-79
2022/10/04 08:42:51;;;;;;;23.80;7.90;;;;;;;11.08;82.84;96979.03;4960096;29;20043;-80
2022/10/04 08:45:52;;;;;;;11.20;4.60;;;;;;;11.14;81.00;96977.81;4953594;29;20131;-77
2022/10/04 08:48:54;;;;;;;8.77;4.50;;;;;;;11.17;80.24;96976.38;4914472;29;20086;-79
2022/10/04 08:52:02;;;;;;;7.72;4.28;;;;;;;11.27;78.93;96973.44;4958106;29;20047;-81
2022/10/04 08:54:50;;;;;;;10.02;4.82;;;;;;;11.22;80.89;96974.38;4958344;28;20047;-81
2022/10/04 08:57:52;;;;;;;9.50;4.25;;;;;;;11.33;81.79;96971.38;4960167;28;20110;-79
2022/10/04 09:00:24;;;;;;;9.20;4.00;;;;;;;11.56;80.04;96972.25;4946383;28;20049;-79
2022/10/04 09:03:27;;;;;;;15.63;4.77;;;;;;;11.68;80.35;96969.75;4959243;28;20050;-79
2022/10/04 09:06:09;;;;;;;8.80;3.30;;;;;;;11.84;80.76;96965.56;4957782;28;20042;-80
2022/10/04 09:09:39;;;;;;;7.28;3.58;;;;;;;11.86;76.28;96981.66;4957856;28;20548;-78
2022/10/04 09:12:34;;;;;;;11.02;3.53;;;;;;;12.01;76.74;96987.53;4927179;29;20071;-78
2022/10/04 09:15:26;;;;;;;12.13;3.90;;;;;;;12.18;75.98;96973.16;4953768;29;20138;-77
2022/10/04 09:18:06;;;;;;;6.00;3.25;;;;;;;12.14;75.05;96976.84;4957821;28;20054;-79
2022/10/04 09:20:47;;;;;;;10.82;3.90;;;;;;;12.06;73.79;96974.84;4944434;29;20544;-79
2022/10/04 09:24:08;;;;;;;10.90;3.65;;;;;;;12.30;75.20;96974.50;4925770;29;20051;-82
2022/10/04 09:26:44;;;;;;;6.18;3.28;;;;;;;12.51;76.06;96970.09;4908395;28;20047;-83
2022/10/04 09:29:27;;;;;;;7.95;3.97;;;;;;;12.43;74.70;96963.50;4967524;28;20102;-81
2022/10/04 09:32:20;;;;;;;10.60;3.28;;;;;;;12.49;73.37;96961.44;4966610;28;20043;-81
2022/10/04 09:35:15;;;;;;;7.43;2.90;;;;;;;12.53;74.18;96965.16;4911720;29;20099;-83
2022/10/04 09:38:09;;;;;;;6.63;2.70;;;;;;;12.63;73.58;96981.22;4946954;29;20039;-80
2022/10/04 09:41:05;;;;;;;8.38;2.90;;;;;;;12.62;72.31;96976.88;4945193;29;20051;-81
2022/10/04 09:44:09;;;;;;;7.57;2.88;;;;;;;12.70;73.15;96978.06;4958119;28;20058;-81
2022/10/04 09:46:56;;;;;;;8.55;3.20;;;;;;;12.55;70.29;96982.03;4945583;29;20091;-82
2022/10/04 09:49:45;;;;;;;7.13;2.67;;;;;;;12.60;70.87;96984.63;4960599;28;20051;-80
2022/10/04 09:52:29;;;;;;;8.77;2.78;;;;;;;12.72;71.20;96976.59;4947946;28;20082;-81
2022/10/04 09:55:13;;;;;;;4.28;2.63;;;;;;;12.83;71.43;96973.59;4963097;28;20053;-83
2022/10/04 09:58:06;;;;;;;7.18;2.70;;;;;;;12.80;69.09;96969.56;4962333;28;20051;-80
2022/10/04 10:00:44;;;;;;;6.93;2.47;;;;;;;12.96;70.53;96969.94;4961976;29;20430;-85
2022/10/04 10:03:48;;;;;;;8.25;3.00;;;;;;;13.03;70.19;96970.25;4960668;29;20055;-81
2022/10/04 10:06:41;;;;;;;5.93;2.78;;;;;;;13.09;69.69;96974.44;4959593;28;20053;-80
2022/10/04 10:09:17;;;;;;;;;;;;;;;13.28;71.43;96966.00;4944257;29;20122;-79
2022/10/04 10:15:14;;;;;;;8.43;2.65;;;;;;;13.30;70.58;96991.88;4959699;29;20053;-80
2022/10/04 10:17:55;;;;;;;5.47;2.37;;;;;;;13.46;69.10;96996.91;4931691;29;20043;-83
2022/10/04 10:21:05;;;;;;;5.00;2.42;;;;;;;13.58;69.29;96995.16;4960083;28;20301;-81
2022/10/04 10:24:04;;;;;;;5.47;2.80;;;;;;;13.53;67.19;96991.78;4940769;29;20047;-83
2022/10/04 10:26:46;;;;;;;14.82;4.82;;;;;;;13.43;67.82;96990.16;4929213;29;20127;-82
2022/10/04 10:29:34;;;;;;;13.20;3.22;;;;;;;13.56;68.03;96989.19;4959987;28;20055;-82
2022/10/04 10:32:27;;;;;;;5.20;2.63;;;;;;;13.63;67.90;96985.19;4960049;28;20051;-81
2022/10/04 10:35:26;;;;;;;18.85;3.70;;;;;;;13.62;68.39;96981.59;4945161;29;20049;-81
2022/10/04 10:38:15;;;;;;;5.22;2.67;;;;;;;13.60;69.68;96983.06;4943380;29;20434;-80
2022/10/04 10:41:00;;;;;;;20.73;3.75;;;;;;;13.63;68.65;96988.72;4960332;28;20043;-80
2022/10/04 10:43:59;;;;;;;15.50;3.97;;;;;;;13.69;68.56;96984.69;4928340;29;20051;-82
2022/10/04 10:46:42;;;;;;;11.68;3.28;;;;;;;13.67;68.38;96978.72;4955898;28;20395;-81
2022/10/04 10:49:17;;;;;;;;;;;;;;;13.75;68.64;96980.66;4956610;29;20055;-81
2022/10/04 10:52:16;;;;;;;10.48;2.67;;;;;;;13.78;68.34;96974.53;4958290;29;19928;-80
2022/10/04 10:55:01;;;;;;;13.25;3.25;;;;;;;13.74;68.88;96981.78;4957366;29;20090;-80
2022/10/04 10:58:01;;;;;;;15.35;3.90;;;;;;;13.79;68.47;96987.09;4921485;29;20054;-79
2022/10/04 11:00:43;;;;;;;14.07;3.40;;;;;;;13.86;67.90;96985.78;4955418;28;20121;-78
2022/10/04 11:03:48;;;;;;;13.85;3.83;;;;;;;13.92;68.00;96979.03;4953989;28;20055;-77
2022/10/04 11:06:30;;;;;;;10.57;3.30;;;;;;;13.99;67.29;96979.31;4953710;29;20054;-77
2022/10/04 11:09:24;;;;;;;11.70;3.58;;;;;;;13.94;65.98;96977.59;4955862;28;20071;-77
2022/10/04 11:12:17;;;;;;;15.13;4.38;;;;;;;14.09;66.79;96976.25;4956863;28;20127;-78
2022/10/04 11:15:06;;;;;;;11.43;4.03;;;;;;;14.23;66.73;96967.84;4961538;28;20040;-81
2022/10/04 11:17:50;;;;;;;14.93;3.72;;;;;;;14.38;67.22;96970.06;4957259;28;20043;-76
2022/10/04 11:20:44;;;;;;;9.30;3.92;;;;;;;14.24;66.60;96974.94;4956025;28;20047;-76
2022/10/04 11:23:37;;;;;;;8.65;3.63;;;;;;;14.34;66.43;96963.63;4954179;28;20058;-75
2022/10/04 11:26:39;;;;;;;7.50;3.58;;;;;;;14.53;67.41;96971.50;4957025;29;20051;-76
2022/10/04 11:29:16;;;;;;;7.68;3.85;;;;;;;14.39;64.63;96968.94;4938898;29;20103;-77
2022/10/04 11:32:14;;;;;;;9.25;4.07;;;;;;;14.36;65.75;96975.88;4939391;29;20044;-76
2022/10/04 11:35:20;;;;;;;9.35;4.22;;;;;;;14.32;67.40;96966.69;4955982;29;20058;-75
2022/10/04 11:37:59;;;;;;;7.80;3.63;;;;;;;14.44;66.21;96967.94;4956253;29;20043;-78
2022/10/04 11:40:38;;;;;;;7.25;3.42;;;;;;;14.54;66.04;96964.88;4956223;29;20105;-77
2022/10/04 11:46:16;;;;;;;8.73;3.72;;;;;;;14.59;67.52;96959.22;5134588;27;20385;-81
2022/10/04 11:49:01;;;;;;;20.67;4.38;;;;;;;14.63;66.22;96959.38;5136648;28;20042;-80
2022/10/04 11:51:51;;;;;;;12.13;4.50;;;;;;;14.58;65.78;96946.66;5124165;28;20047;-80
2022/10/04 11:54:48;;;;;;;18.08;4.40;;;;;;;14.75;64.47;96946.56;5112595;28;20044;-74
2022/10/04 11:57:30;;;;;;;13.15;4.88;;;;;;;14.45;61.77;96942.16;5133627;28;20053;-80
2022/10/04 12:00:07;;;;;;;9.15;3.80;;;;;;;14.72;63.67;96941.75;5132650;28;20073;-79
2022/10/04 12:03:15;;;;;;;8.32;3.67;;;;;;;14.99;63.21;96951.44;5132854;28;20062;-78
2022/10/04 12:06:09;;;;;;;8.90;3.80;;;;;;;15.04;62.64;96943.03;5122944;28;20478;-79
2022/10/04 12:08:58;;;;;;;7.93;4.00;;;;;;;15.05;62.69;96938.34;5132662;28;20039;-76
2022/10/04 12:14:52;;;;;;;6.20;3.70;;;;;;;15.39;64.99;96932.59;5132475;28;20058;-78
2022/10/04 12:17:58;;;;;;;7.80;3.30;;;;;;;15.43;61.80;96931.94;5132244;28;20047;-81
2022/10/04 12:21:00;;;;;;;8.35;4.40;;;;;;;15.42;61.77;96938.56;5116273;28;20046;-81
2022/10/04 12:23:53;;;;;;;6.22;3.55;;;;;;;15.53;61.99;96937.81;5112479;28;20040;-82
2022/10/04 12:27:02;;;;;;;12.90;3.40;;;;;;;15.64;63.84;96941.78;5150072;27;20047;-76
2022/10/04 12:30:26;;;;;;;12.38;4.05;;;;;;;15.75;62.29;96933.94;5153657;27;20043;-82
2022/10/04 12:33:14;;;;;;;4.75;2.38;;;;;;;15.72;61.42;96931.06;5122146;28;20047;-81
2022/10/04 12:35:56;;;;;;;10.95;4.20;;;;;;;15.85;61.98;96927.22;5142100;28;20039;-79
2022/10/04 12:38:59;;;;;;;9.20;3.42;;;;;;;15.98;61.23;96926.13;5132430;28;20140;-80
2022/10/04 12:41:37;;;;;;;13.68;6.70;;;;;;;16.04;60.28;96922.03;5110726;28;20043;-78
2022/10/04 12:44:22;;;;;;;11.05;3.90;;;;;;;16.10;59.76;96919.88;5129912;28;20051;-77
2022/10/04 12:47:00;;;;;;;13.73;4.85;;;;;;;15.88;59.53;96916.38;5131090;28;20047;-78
2022/10/04 12:49:41;;;;;;;8.60;4.22;;;;;;;15.95;59.91;96920.50;5130521;27;20482;-80
2022/10/04 12:52:15;;;;;;;11.27;3.58;;;;;;;16.08;61.46;96913.91;5122164;27;20051;-81
2022/10/04 12:54:44;;;;;;;9.85;3.17;;;;;;;16.01;59.80;96910.91;5144556;27;20490;-82